Time;durP1;ratioP1;P1;durP2;ratioP2;P2;SDS_P1;SDS_P2;PMS_P1;PMS_P2;Temp;Humidity;BMP_temperature;BMP_pressure;BME280_temperature;BME280_humidity;BME280_pressure;Samples;Min_cycle;Max_cycle;Signal;HPM_P1;HPM_P2
2022/09/08 00:02:06;;;;;;;;;;;;;;;12.10;100.00;97975.50;1711258;82;20196;-84
2022/09/08 00:04:32;;;;;;;;;;;;;;;12.07;100.00;97970.11;1719156;82;20202;-84
2022/09/08 00:07:01;;;;;;;;;;;;;;;12.07;100.00;97966.59;1708076;82;20200;-90
2022/09/08 00:09:25;;;;;;;;;;;;;;;12.03;100.00;97966.34;1736652;80;20197;-84
2022/09/08 00:11:51;;;;;;;;;;;;;;;11.98;100.00;97961.53;1720399;82;20630;-84
2022/09/08 00:14:17;;;;;;;;;;;;;;;11.96;100.00;97969.14;1735521;82;20231;-84
2022/09/08 00:16:43;;;;;;;;;;;;;;;11.96;100.00;97963.71;1708242;82;20300;-83
2022/09/08 00:19:08;;;;;;;;;;;;;;;11.94;100.00;97969.44;1730526;82;20500;-84
2022/09/08 00:21:34;;;;;;;;;;;;;;;11.94;100.00;97976.22;1737334;82;20219;-90
2022/09/08 00:24:00;;;;;;;;;;;;;;;11.93;100.00;97973.25;1718049;82;21906;-90
2022/09/08 00:26:26;;;;;;;;;;;;;;;11.91;100.00;97963.23;1725289;82;20216;-90
2022/09/08 00:28:52;;;;;;;;;;;;;;;11.93;100.00;97954.25;1744985;82;20782;-91
2022/09/08 00:31:17;;;;;;;;;;;;;;;11.98;100.00;97956.11;1741295;82;20260;-90
2022/09/08 00:33:44;;;;;;;;;;;;;;;12.02;100.00;97960.66;1722554;80;20316;-90
2022/09/08 00:36:15;;;;;;;;;;;;;;;12.06;100.00;97962.25;1726270;82;21972;-84
2022/09/08 00:38:42;;;;;;;;;;;;;;;12.09;100.00;97960.31;1744854;82;20155;-84
2022/09/08 00:41:11;;;;;;;;;;;;;;;12.07;100.00;97956.53;1697211;82;20507;-84
2022/09/08 00:43:40;;;;;;;;;;;;;;;12.01;100.00;97949.53;1716898;82;20214;-89
2022/09/08 00:46:14;;;;;;;;;;;;;;;12.00;100.00;97957.98;1718110;82;20346;-84
2022/09/08 00:49:04;;;;;;;;;;;;;;;11.94;100.00;97953.70;1702062;82;21147;-83
2022/09/08 00:51:30;;;;;;;;;;;;;;;11.89;100.00;97960.56;1722287;82;20164;-83
2022/09/08 00:53:57;;;;;;;;;;;;;;;11.73;100.00;97959.89;1731789;82;20202;-84
2022/09/08 00:56:23;;;;;;;;;;;;;;;11.64;100.00;97960.27;1721692;82;20410;-84
2022/09/08 00:58:49;;;;;;;;;;;;;;;11.61;100.00;97956.75;1711510;82;20204;-84
2022/09/08 01:01:15;;;;;;;;;;;;;;;11.57;100.00;97953.27;1747291;79;21156;-84
2022/09/08 01:03:41;;;;;;;;;;;;;;;11.58;100.00;97958.95;1744819;82;20212;-90
2022/09/08 01:06:10;;;;;;;;;;;;;;;11.57;100.00;97951.91;1728942;82;20176;-90
2022/09/08 01:14:45;;;;;;;;;;;;;;;11.58;100.00;97956.78;1721486;82;21041;-84
2022/09/08 01:17:15;;;;;;;;;;;;;;;11.57;100.00;97960.05;1744882;82;20244;-88
2022/09/08 01:19:41;;;;;;;;;;;;;;;11.54;100.00;97953.84;1724048;82;20184;-89
2022/09/08 01:22:14;;;;;;;;;;;;;;;11.54;100.00;97956.56;1720341;82;20237;-90
2022/09/08 01:24:46;;;;;;;;;;;;;;;11.55;100.00;97954.66;1724859;82;20180;-83
2022/09/08 01:27:18;;;;;;;;;;;;;;;11.51;100.00;97954.95;1728269;82;21832;-84
2022/09/08 01:29:43;;;;;;;;;;;;;;;11.50;100.00;97947.91;1707412;82;20218;-89
2022/09/08 01:32:09;;;;;;;;;;;;;;;11.47;100.00;97947.95;1720384;82;20191;-90
2022/09/08 01:34:39;;;;;;;;;;;;;;;11.40;100.00;97946.11;1725484;80;20224;-84
2022/09/08 01:37:05;;;;;;;;;;;;;;;11.37;100.00;97948.05;1715153;83;20224;-84
2022/09/08 01:39:31;;;;;;;;;;;;;;;11.36;100.00;97943.70;1732404;82;21086;-90
2022/09/08 01:41:57;;;;;;;;;;;;;;;11.34;100.00;97941.82;1720410;82;20526;-88
2022/09/08 01:44:23;;;;;;;;;;;;;;;11.32;100.00;97939.14;1710001;82;20276;-84
2022/09/08 01:46:49;;;;;;;;;;;;;;;11.32;100.00;97939.14;1712445;82;20239;-84
2022/09/08 01:49:14;;;;;;;;;;;;;;;11.33;100.00;97940.21;1707883;82;20167;-89
2022/09/08 01:51:40;;;;;;;;;;;;;;;11.35;100.00;97933.94;1720191;82;21117;-90
2022/09/08 01:54:06;;;;;;;;;;;;;;;11.38;100.00;97942.89;1719897;82;20221;-85
2022/09/08 01:56:32;;;;;;;;;;;;;;;11.40;100.00;97934.45;1712211;82;20202;-89
2022/09/08 01:58:58;;;;;;;;;;;;;;;11.42;100.00;97933.61;1697606;82;20164;-91
2022/09/08 02:01:24;;;;;;;;;;;;;;;11.44;100.00;97932.77;1721554;82;21469;-90
2022/09/08 02:03:49;;;;;;;;;;;;;;;11.43;100.00;97928.44;1744602;82;21059;-83
2022/09/08 02:06:15;;;;;;;;;;;;;;;11.39;100.00;97929.58;1728445;82;20267;-89
2022/09/08 02:08:43;;;;;;;;;;;;;;;11.38;100.00;97933.94;1723122;82;20202;-90
2022/09/08 02:11:09;;;;;;;;;;;;;;;11.38;100.00;97929.32;1716202;82;20176;-89
2022/09/08 02:13:35;;;;;;;;;;;;;;;11.38;100.00;97921.18;1719882;82;20166;-83
2022/09/08 02:16:02;;;;;;;;;;;;;;;11.40;100.00;97920.34;1693574;82;21544;-89
2022/09/08 02:18:30;;;;;;;;;;;;;;;11.42;100.00;97919.50;1701673;82;20250;-83
2022/09/08 02:21:06;;;;;;;;;;;;;;;11.47;100.00;97920.01;1720322;82;20541;-84
2022/09/08 02:23:32;;;;;;;;;;;;;;;11.46;100.00;97911.61;1720085;82;20127;-90
2022/09/08 02:25:58;;;;;;;;;;;;;;;11.48;100.00;97911.58;1720233;82;20521;-84
2022/09/08 02:28:24;;;;;;;;;;;;;;;11.50;100.00;97906.66;1720063;82;21145;-90
2022/09/08 02:30:49;;;;;;;;;;;;;;;11.47;100.00;97906.44;1720250;82;20245;-84
2022/09/08 02:33:16;;;;;;;;;;;;;;;11.40;100.00;97908.12;1744165;82;20216;-89
2022/09/08 02:35:42;;;;;;;;;;;;;;;11.38;100.00;97904.91;1727788;82;20193;-90
2022/09/08 02:38:07;;;;;;;;;;;;;;;11.41;100.00;97901.61;1745037;82;20168;-85
2022/09/08 02:40:33;;;;;;;;;;;;;;;11.40;100.00;97904.61;1744709;82;21065;-88
2022/09/08 02:42:59;;;;;;;;;;;;;;;11.40;100.00;97895.92;1700669;82;20183;-84
2022/09/08 02:45:25;;;;;;;;;;;;;;;11.38;100.00;97900.03;1708193;82;20203;-84
2022/09/08 02:47:51;;;;;;;;;;;;;;;11.33;100.00;97889.22;1720337;82;20169;-83
2022/09/08 02:50:17;;;;;;;;;;;;;;;11.30;100.00;97888.70;1719286;82;20282;-83
2022/09/08 02:52:43;;;;;;;;;;;;;;;11.30;100.00;97887.90;1737233;82;21167;-90
2022/09/08 02:55:09;;;;;;;;;;;;;;;11.29;100.00;97892.52;1738939;82;20206;-84
2022/09/08 02:57:35;;;;;;;;;;;;;;;11.29;100.00;97884.93;1703823;82;20207;-90
2022/09/08 03:00:01;;;;;;;;;;;;;;;11.30;100.00;97885.19;1704460;82;20186;-85
2022/09/08 03:02:26;;;;;;;;;;;;;;;11.28;100.00;97888.73;1720532;82;20190;-84
2022/09/08 03:04:52;;;;;;;;;;;;;;;11.24;100.00;97883.06;1720556;82;21055;-84
2022/09/08 03:07:18;;;;;;;;;;;;;;;11.22;100.00;97879.84;1726230;82;20267;-90
2022/09/08 03:09:44;;;;;;;;;;;;;;;11.22;100.00;97888.52;1729103;82;20176;-83
2022/09/08 03:12:10;;;;;;;;;;;;;;;11.20;100.00;97882.03;1735064;79;20275;-91
2022/09/08 03:14:36;;;;;;;;;;;;;;;11.21;100.00;97887.72;1725842;82;20400;-89
2022/09/08 03:17:02;;;;;;;;;;;;;;;11.20;100.00;97879.32;1718403;82;21132;-89
2022/09/08 03:19:28;;;;;;;;;;;;;;;11.22;100.00;97879.84;1731130;82;20232;-84
2022/09/08 03:21:54;;;;;;;;;;;;;;;11.22;100.00;97875.77;1743396;82;20181;-90
2022/09/08 03:24:20;;;;;;;;;;;;;;;11.21;100.00;97879.58;1732703;82;20670;-90
2022/09/08 03:26:46;;;;;;;;;;;;;;;11.22;100.00;97878.48;1719858;82;20761;-83
2022/09/08 03:29:11;;;;;;;;;;;;;;;11.24;100.00;97880.90;1719838;82;21851;-84
2022/09/08 03:31:37;;;;;;;;;;;;;;;11.25;100.00;97879.80;1720622;82;20800;-84
2022/09/08 03:34:03;;;;;;;;;;;;;;;11.26;100.00;97878.16;1735630;80;21490;-90
2022/09/08 03:36:29;;;;;;;;;;;;;;;11.23;100.00;97867.08;1730987;80;20189;-89
2022/09/08 03:38:54;;;;;;;;;;;;;;;11.23;100.00;97866.53;1731228;82;20214;-90
2022/09/08 03:41:20;;;;;;;;;;;;;;;11.21;100.00;97860.59;1730374;82;21092;-89
2022/09/08 03:43:48;;;;;;;;;;;;;;;11.20;100.00;97862.24;1733162;82;20426;-90
2022/09/08 03:46:14;;;;;;;;;;;;;;;11.15;100.00;97856.31;1717398;82;20207;-89
2022/09/08 03:48:39;;;;;;;;;;;;;;;11.18;100.00;97859.79;1708417;82;20376;-89
2022/09/08 03:51:14;;;;;;;;;;;;;;;11.22;100.00;97862.20;1711470;82;20176;-84
2022/09/08 03:53:40;;;;;;;;;;;;;;;11.28;100.00;97861.61;1662264;85;21125;-90
2022/09/08 03:56:08;;;;;;;;;;;;;;;11.32;100.00;97867.27;1689459;85;20199;-88
2022/09/08 03:58:34;;;;;;;;;;;;;;;11.30;100.00;97868.36;1689441;85;20197;-90
2022/09/08 04:01:01;;;;;;;;;;;;;;;11.28;100.00;97872.47;1689526;85;20205;-85
2022/09/08 04:03:27;;;;;;;;;;;;;;;11.23;100.00;97869.25;1688809;85;20193;-90
2022/09/08 04:05:53;;;;;;;;;;;;;;;11.17;100.00;97867.67;1689717;85;21085;-84
2022/09/08 04:08:19;;;;;;;;;;;;;;;11.16;100.00;97868.77;1684701;85;20185;-89
2022/09/08 04:10:45;;;;;;;;;;;;;;;11.13;100.00;97867.19;1674801;85;20477;-89
2022/09/08 04:13:11;;;;;;;;;;;;;;;11.12;100.00;97866.94;1663426;85;20158;-89
2022/09/08 04:15:38;;;;;;;;;;;;;;;11.11;100.00;97859.34;1672985;85;20201;-89
2022/09/08 04:18:04;;;;;;;;;;;;;;;11.12;100.00;97859.61;1665033;85;21876;-90
2022/09/08 04:20:30;;;;;;;;;;;;;;;11.12;100.00;97862.32;1674607;85;20532;-84
2022/09/08 04:22:56;;;;;;;;;;;;;;;11.14;100.00;97857.41;1661764;85;20211;-90
2022/09/08 04:25:22;;;;;;;;;;;;;;;11.10;100.00;97857.70;1661828;85;20238;-84
2022/09/08 04:27:48;;;;;;;;;;;;;;;11.11;100.00;97866.64;1683048;85;20205;-87
2022/09/08 04:30:14;;;;;;;;;;;;;;;11.10;100.00;97871.27;1682810;85;21082;-84
2022/09/08 04:32:40;;;;;;;;;;;;;;;11.08;100.00;97868.03;1681565;84;20173;-87
2022/09/08 04:35:07;;;;;;;;;;;;;;;11.08;100.00;97868.58;1668052;85;20232;-90
2022/09/08 04:37:32;;;;;;;;;;;;;;;11.11;100.00;97862.06;1661808;85;20630;-84
2022/09/08 04:39:59;;;;;;;;;;;;;;;11.16;100.00;97858.47;1664590;85;21709;-83
2022/09/08 04:42:25;;;;;;;;;;;;;;;11.22;100.00;97853.27;1673976;85;21822;-90
2022/09/08 04:44:50;;;;;;;;;;;;;;;11.26;100.00;97857.00;1661443;85;20213;-83
2022/09/08 04:47:16;;;;;;;;;;;;;;;11.36;100.00;97866.93;1674967;85;20184;-90
2022/09/08 04:49:42;;;;;;;;;;;;;;;11.43;100.00;97859.26;1672321;85;20174;-83
2022/09/08 04:52:08;;;;;;;;;;;;;;;11.53;100.00;97865.37;1689548;85;20164;-83
2022/09/08 04:54:34;;;;;;;;;;;;;;;11.61;100.00;97869.35;1673114;85;21093;-90
2022/09/08 04:57:00;;;;;;;;;;;;;;;11.69;100.00;97859.77;1661742;85;20210;-84
2022/09/08 04:59:27;;;;;;;;;;;;;;;11.75;100.00;97852.63;1661614;85;20225;-90
2022/09/08 05:01:53;;;;;;;;;;;;;;;11.84;100.00;97852.27;1672209;85;20193;-83
2022/09/08 05:04:19;;;;;;;;;;;;;;;11.93;100.00;97848.91;1674201;85;20242;-84
2022/09/08 05:06:44;;;;;;;;;;;;;;;12.00;100.00;97846.09;1666892;85;21104;-88
2022/09/08 05:09:11;;;;;;;;;;;;;;;12.07;100.00;97851.16;1661407;85;20263;-90
2022/09/08 05:11:37;;;;;;;;;;;;;;;12.16;100.00;97847.23;1667063;85;20211;-84
2022/09/08 05:14:03;;;;;;;;;;;;;;;12.22;100.00;97845.52;1675691;85;20245;-84
2022/09/08 05:16:29;;;;;;;;;;;;;;;12.32;100.00;97848.62;1674565;85;20168;-83
2022/09/08 05:19:00;;;;;;;;;;;;;;;12.42;100.00;97849.83;1665876;85;21062;-84
2022/09/08 05:21:26;;;;;;;;;;;;;;;12.55;100.00;97848.25;1676073;85;20159;-90
2022/09/08 05:23:53;;;;;;;;;;;;;;;12.65;100.00;97842.13;1669541;84;20168;-85
2022/09/08 05:26:19;;;;;;;;;;;;;;;12.73;100.00;97838.44;1667087;85;20210;-89
2022/09/08 05:28:45;;;;;;;;;;;;;;;12.82;100.00;97848.89;1661476;85;20165;-84
2022/09/08 05:31:16;;;;;;;;;;;;;;;12.88;100.00;97852.59;1672464;85;21108;-90
2022/09/08 05:33:42;;;;;;;;;;;;;;;12.93;100.00;97849.80;1661360;85;20200;-90
2022/09/08 05:36:16;;;;;;;;;;;;;;;12.98;100.00;97852.41;1663837;85;20269;-89
2022/09/08 05:38:43;;;;;;;;;;;;;;;13.04;100.00;97846.89;1681336;83;20463;-84
2022/09/08 05:41:10;;;;;;;;;;;;;;;13.22;100.00;97844.12;1680159;85;20161;-84
2022/09/08 05:43:36;;;;;;;;;;;;;;;13.43;100.00;97845.91;1663398;85;21121;-84
2022/09/08 05:46:03;;;;;;;;;;;;;;;13.51;100.00;97841.12;1683745;85;38317;-85
2022/09/08 05:48:30;;;;;;;;;;;;;;;13.60;100.00;97838.50;1672743;85;20171;-90
2022/09/08 05:50:56;;;;;;;;;;;;;;;13.64;100.00;97843.58;1673042;85;20699;-84
2022/09/08 05:53:22;;;;;;;;;;;;;;;13.69;100.00;97835.87;1668942;85;20167;-90
2022/09/08 05:55:58;;;;;;;;;;;;;;;13.77;100.00;97832.44;1678704;85;21708;-90
2022/09/08 05:58:24;;;;;;;;;;;;;;;13.86;100.00;97826.52;1672067;84;20196;-85
2022/09/08 06:01:05;;;;;;;;;;;;;;;13.96;100.00;97825.48;1654488;85;20188;-89
2022/09/08 06:03:30;;;;;;;;;;;;;;;14.06;100.00;97818.44;1654704;85;20272;-84
2022/09/08 06:05:58;;;;;;;;;;;;;;;14.16;100.00;97816.84;1662644;85;20813;-83
2022/09/08 06:08:24;;;;;;;;;;;;;;;14.28;100.00;97814.40;1690062;82;21082;-84
2022/09/08 06:10:52;;;;;;;;;;;;;;;14.42;100.00;97810.80;1724495;82;20169;-85
2022/09/08 06:13:21;;;;;;;;;;;;;;;14.61;100.00;97808.71;1724402;82;20188;-90
2022/09/08 06:15:47;;;;;;;;;;;;;;;14.93;100.00;97814.45;1730579;82;20197;-91
2022/09/08 06:18:13;;;;;;;;;;;;;;;15.30;100.00;97813.76;1714704;82;20226;-84
2022/09/08 06:20:39;;;;;;;;;;;;;;;15.65;100.00;97805.14;1725946;82;21181;-84
2022/09/08 06:23:05;;;;;;;;;;;;;;;16.02;100.00;97799.09;1721666;82;20285;-84
2022/09/08 06:25:30;;;;;;;;;;;;;;;16.27;100.00;97793.39;1714745;82;20187;-85
2022/09/08 06:28:06;;;;;;;;;;;;;;;16.42;100.00;97798.95;1713402;82;20203;-91
2022/09/08 06:30:32;;;;;;;;;;;;;;;16.54;100.00;97815.49;1720595;82;20221;-84
2022/09/08 06:32:59;;;;;;;;;;;;;;;16.82;100.00;97801.47;1697055;82;21076;-91
2022/09/08 06:35:28;;;;;;;;;;;;;;;17.06;100.00;97801.73;1692420;83;20187;-91
2022/09/08 06:38:01;;;;;;;;;;;;;;;17.23;100.00;97794.59;1715591;82;20216;-84
2022/09/08 06:40:41;;;;;;;;;;;;;;;17.33;100.00;97793.66;1723979;82;20528;-91
2022/09/08 06:43:12;;;;;;;;;;;;;;;17.61;100.00;97794.59;1728441;82;20228;-89
2022/09/08 06:45:40;;;;;;;;;;;;;;;18.13;100.00;97790.16;1691259;82;21150;-91
2022/09/08 06:48:12;;;;;;;;;;;;;;;18.66;100.00;97796.83;1724607;80;20208;-91
2022/09/08 06:50:54;;;;;;;;;;;;;;;19.09;100.00;97794.43;1732899;82;20398;-91
2022/09/08 06:53:23;;;;;;;;;;;;;;;19.66;100.00;97794.97;1717586;82;20166;-91
2022/09/08 06:55:58;;;;;;;;;;;;;;;20.07;96.95;97797.18;1728658;82;20147;-91
2022/09/08 06:58:29;;;;;;;;;;;;;;;20.62;96.29;97787.42;1731795;80;21109;-85
2022/09/08 07:01:19;;;;;;;;;;;;;;;21.29;97.73;97789.82;1712284;82;20618;-84
2022/09/08 07:04:06;;;;;;;;;;;;;;;21.50;94.34;97785.98;1716616;82;20219;-91
2022/09/08 07:06:36;;;;;;;;;;;;;;;22.12;93.43;97779.56;1720132;82;20132;-86
2022/09/08 07:09:05;;;;;;;;;;;;;;;22.29;89.77;97770.64;1687009;82;20169;-92
2022/09/08 07:11:58;;;;;;;;;;;;;;;22.39;85.76;97776.96;1674960;84;21076;-85
2022/09/08 07:14:54;;;;;;;;;;;;;;;22.98;83.86;97779.33;1726579;82;20188;-92
2022/09/08 07:17:22;;;;;;;;;;;;;;;23.23;83.28;97774.25;1728538;82;20197;-85
2022/09/08 07:19:53;;;;;;;;;;;;;;;23.31;77.27;97773.79;1724133;82;20520;-85
2022/09/08 07:22:34;;;;;;;;;;;;;;;24.03;80.39;97761.31;1695449;82;20267;-91
2022/09/08 07:25:30;;;;;;;;;;;;;;;24.41;79.80;97764.98;1724448;82;21827;-86
2022/09/08 07:28:11;;;;;;;;;;;;;;;24.69;78.68;97752.05;1725888;82;20294;-91
2022/09/08 07:30:37;;;;;;;;;;;;;;;25.16;78.46;97750.58;1651782;85;20242;-86
2022/09/08 07:33:32;;;;;;;;;;;;;;;25.75;76.70;97745.34;1676298;83;20694;-90
2022/09/08 07:36:34;;;;;;;;;;;;;;;26.09;76.82;97740.38;1663134;84;20720;-86
2022/09/08 07:39:02;;;;;;;;;;;;;;;26.63;74.61;97739.23;1672772;85;21254;-92
2022/09/08 07:41:32;;;;;;;;;;;;;;;26.83;69.08;97724.39;1672943;85;20216;-86
2022/09/08 07:43:59;;;;;;;;;;;;;;;27.19;61.73;97731.63;1673640;85;20364;-92
2022/09/08 07:46:48;;;;;;;;;;;;;;;28.08;69.58;97731.54;1669561;83;20153;-92
2022/09/08 07:49:41;;;;;;;;;;;;;;;28.27;61.06;97723.91;1671046;85;20176;-92
2022/09/08 07:52:39;;;;;;;;;;;;;;;28.91;61.53;97717.48;1677702;84;20954;-92
2022/09/08 07:55:27;;;;;;;;;;;;;;;29.16;53.80;97715.91;1670757;85;20174;-86
2022/09/08 07:58:16;;;;;;;;;;;;;;;29.89;56.62;97711.27;1673704;83;20466;-92
2022/09/08 08:00:54;;;;;;;;;;;;;;;30.53;63.47;97709.16;1669665;85;20478;-86
2022/09/08 08:03:44;;;;;;;;;;;;;;;30.81;61.85;97709.38;1687321;85;20733;-92
2022/09/08 08:06:19;;;;;;;;;;;;;;;30.54;52.76;97711.52;1677578;85;21047;-92
2022/09/08 08:08:55;;;;;;;;;;;;;;;31.00;50.62;97701.70;1667875;85;20863;-86
2022/09/08 08:11:24;;;;;;;;;;;;;;;31.48;49.07;97704.75;1687706;85;20204;-92
2022/09/08 08:14:12;;;;;;;;;;;;;;;31.74;56.77;97697.48;1665452;83;20181;-87
2022/09/08 08:16:50;;;;;;;;;;;;;;;31.70;53.92;97698.97;1676893;85;20159;-92
2022/09/08 08:19:42;;;;;;;;;;;;;;;31.54;46.05;97694.66;1677843;85;22027;-86
2022/09/08 08:22:29;;;;;;;;;;;;;;;31.96;52.00;97688.91;1678001;83;20519;-86
2022/09/08 08:25:14;;;;;;;;;;;;;;;31.68;43.16;97688.78;1676545;85;20157;-87
2022/09/08 08:27:50;;;;;;;;;;;;;;;32.09;43.92;97688.25;1664713;85;20176;-87
2022/09/08 08:30:21;;;;;;;;;;;;;;;32.87;44.18;97687.22;1659175;85;20161;-86
2022/09/08 08:33:05;;;;;;;;;;;;;;;32.96;45.80;97692.41;1674268;85;20754;-87
2022/09/08 08:35:46;;;;;;;;;;;;;;;33.14;43.92;97676.54;1662376;85;20200;-92
2022/09/08 08:38:16;;;;;;;;;;;;;;;33.21;39.18;97672.16;1666780;85;20195;-87
2022/09/08 08:40:59;;;;;;;;;;;;;;;31.98;37.79;97668.86;1670860;85;20161;-91
2022/09/08 08:43:45;;;;;;;;;;;;;;;33.32;38.66;97669.86;1672162;85;20171;-87
2022/09/08 08:46:40;;;;;;;;;;;;;;;33.61;39.93;97663.55;1679019;83;21151;-92
2022/09/08 08:49:22;;;;;;;;;;;;;;;34.23;38.61;97668.47;1668697;85;20192;-91
2022/09/08 08:51:57;;;;;;;;;;;;;;;34.57;36.55;97661.47;1669420;85;20240;-89
2022/09/08 08:54:35;;;;;;;;;;;;;;;34.41;33.74;97656.10;1637170;85;20459;-87
2022/09/08 08:57:34;;;;;;;;;;;;;;;34.52;32.82;97657.17;1670503;85;20248;-87
2022/09/08 09:00:14;;;;;;;;;;;;;;;35.20;34.36;97656.45;1666986;85;21032;-91
2022/09/08 09:02:59;;;;;;;;;;;;;;;35.84;32.73;97652.23;1670608;84;20155;-92
2022/09/08 09:05:40;;;;;;;;;;;;;;;35.38;33.33;97646.81;1669751;83;20186;-87
2022/09/08 09:08:31;;;;;;;;;;;;;;;35.47;33.31;97650.36;1673329;83;20191;-92
2022/09/08 09:11:04;;;;;;;;;;;;;;;34.70;33.33;97649.62;1674893;83;20184;-92
2022/09/08 09:13:55;;;;;;;;;;;;;;;32.48;34.29;97650.41;1661510;85;21888;-87
2022/09/08 09:16:47;;;;;;;;;;;;;;;31.56;38.37;97646.63;1668837;85;20193;-86
2022/09/08 09:19:43;;;;;;;;;;;;;;;30.93;39.65;97640.27;1676901;85;20444;-87
2022/09/08 09:22:30;;;;;;;;;;;;;;;30.08;39.48;97637.27;1676911;83;20192;-86
2022/09/08 09:25:00;;;;;;;;;;;;;;;29.42;41.03;97635.57;1658351;85;20727;-87
2022/09/08 09:27:41;;;;;;;;;;;;;;;29.01;40.99;97627.97;1664308;84;21156;-90
2022/09/08 09:30:18;;;;;;;;;;;;;;;28.53;41.44;97635.65;1667550;85;20464;-86
2022/09/08 09:32:56;;;;;;;;;;;;;;;27.97;43.23;97632.55;1669657;85;20251;-86
2022/09/08 09:35:38;;;;;;;;;;;;;;;27.64;43.38;97629.64;1673365;83;20388;-91
2022/09/08 09:38:28;;;;;;;;;;;;;;;27.43;44.06;97630.47;1675781;85;20160;-86
2022/09/08 09:41:18;;;;;;;;;;;;;;;27.39;43.70;97624.93;1675182;85;21265;-86
2022/09/08 09:43:54;;;;;;;;;;;;;;;27.14;45.98;97622.78;1669768;85;20189;-92
2022/09/08 09:46:26;;;;;;;;;;;;;;;27.03;46.19;97625.58;1676348;83;20180;-92
2022/09/08 09:48:55;;;;;;;;;;;;;;;27.11;45.15;97619.41;1667082;83;20290;-92
2022/09/08 09:51:41;;;;;;;;;;;;;;;27.04;45.69;97622.20;1674404;85;20240;-92
2022/09/08 09:54:27;;;;;;;;;;;;;;;26.71;46.75;97614.41;1693376;84;21011;-86
2022/09/08 09:57:19;;;;;;;;;;;;;;;26.70;46.59;97608.66;1677994;84;20366;-91
2022/09/08 10:00:05;;;;;;;;;;;;;;;26.74;45.97;97614.20;1675150;83;20650;-86
2022/09/08 10:02:51;;;;;;;;;;;;;;;26.63;46.92;97608.65;1674065;83;20480;-86
2022/09/08 10:05:37;;;;;;;;;;;;;;;26.63;46.26;97611.42;1664220;85;20196;-86
2022/09/08 10:08:13;;;;;;;;;;;;;;;26.69;47.37;97609.26;1671718;85;21407;-86
2022/09/08 10:11:11;;;;;;;;;;;;;;;26.61;47.18;97610.44;1670407;83;20168;-85
2022/09/08 10:14:00;;;;;;;;;;;;;;;26.62;45.60;97597.34;1679636;84;20198;-90
2022/09/08 10:16:45;;;;;;;;;;;;;;;26.59;46.27;97591.98;1658480;86;20283;-85
2022/09/08 10:19:31;;;;;;;;;;;;;;;26.77;45.86;97597.55;1669128;84;20214;-86
2022/09/08 10:22:25;;;;;;;;;;;;;;;26.89;46.08;97594.96;1662814;83;21190;-85
2022/09/08 10:25:28;;;;;;;;;;;;;;;26.93;46.27;97595.17;1676866;85;20464;-93
2022/09/08 10:28:17;;;;;;;;;;;;;;;27.05;46.92;97590.42;1664081;85;20227;-85
2022/09/08 10:31:19;;;;;;;;;;;;;;;27.11;46.93;97589.62;1662616;85;20187;-93
2022/09/08 10:34:03;;;;;;;;;;;;;;;27.16;48.33;97582.25;1719022;82;20519;-93
2022/09/08 10:36:33;;;;;;;;;;;;;;;27.22;48.16;97582.64;1725638;82;21068;-93
2022/09/08 10:39:00;;;;;;;;;;;;;;;27.36;47.32;97586.80;1723987;82;20210;-85
2022/09/08 10:42:01;;;;;;;;;;;;;;;27.47;47.42;97587.55;1728557;82;20228;-92
2022/09/08 10:44:42;;;;;;;;;;;;;;;27.60;47.22;97585.72;1729964;82;20623;-85
2022/09/08 10:47:15;;;;;;;;;;;;;;;27.65;46.84;97577.76;1724840;80;20207;-92
2022/09/08 10:49:53;;;;;;;;;;;;;;;27.80;46.08;97575.75;1721263;82;21041;-86
2022/09/08 10:52:39;;;;;;;;;;;;;;;27.62;46.37;97579.97;1724848;82;20168;-90
2022/09/08 10:55:27;;;;;;;;;;;;;;;27.79;45.90;97576.34;1718392;82;20204;-92
2022/09/08 10:58:03;;;;;;;;;;;;;;;27.76;45.42;97568.00;1721249;82;20373;-92
2022/09/08 11:00:41;;;;;;;;;;;;;;;27.75;46.25;97565.02;1719896;82;20179;-92
2022/09/08 11:03:37;;;;;;;;;;;;;;;27.85;47.27;97558.61;1733565;82;21069;-92
2022/09/08 11:06:06;;;;;;;;;;;;;;;27.75;46.15;97562.24;1721552;82;20274;-86
2022/09/08 11:08:52;;;;;;;;;;;;;;;27.68;45.74;97563.66;1722697;82;20217;-92
2022/09/08 11:11:30;;;;;;;;;;;;;;;27.57;47.20;97565.06;1751434;80;20531;-86
2022/09/08 11:14:16;;;;;;;;;;;;;;;27.41;48.27;97563.33;1733960;82;20253;-92
2022/09/08 11:17:13;;;;;;;;;;;;;;;27.42;47.32;97562.92;1715793;82;21269;-91
2022/09/08 11:19:46;;;;;;;;;;;;;;;27.41;47.61;97563.33;1729705;82;20178;-86
2022/09/08 11:22:31;;;;;;;;;;;;;;;27.40;48.23;97561.14;1728544;80;20750;-85
2022/09/08 11:25:32;;;;;;;;;;;;;;;27.54;47.48;97560.31;1735785;82;20391;-92
2022/09/08 11:28:22;;;;;;;;;;;;;;;27.62;47.98;97561.87;1729776;82;20264;-86
2022/09/08 11:31:01;;;;;;;;;;;;;;;27.81;47.46;97554.47;1728632;82;21144;-93
2022/09/08 11:33:53;;;;;;;;;;;;;;;27.90;48.00;97550.45;1720642;82;20629;-85
2022/09/08 11:36:32;;;;;;;;;;;;;;;28.05;48.97;97549.97;1722151;80;20181;-93
2022/09/08 11:39:16;;;;;;;;;;;;;;;28.20;47.18;97556.83;1717326;82;20248;-85
2022/09/08 11:41:58;;;;;;;;;;;;;;;28.20;47.51;97553.47;1724122;82;20295;-86
2022/09/08 11:44:30;;;;;;;;;;;;;;;28.26;48.24;97549.03;1717477;82;21855;-86
2022/09/08 11:47:16;;;;;;;;;;;;;;;28.32;47.99;97544.66;1734107;80;20279;-92
2022/09/08 11:50:04;;;;;;;;;;;;;;;28.36;46.74;97545.41;1726102;82;20170;-92
2022/09/08 11:52:45;;;;;;;;;;;;;;;28.29;47.35;97548.27;1717530;82;20191;-92
2022/09/08 11:55:18;;;;;;;;;;;;;;;28.24;49.84;97545.87;1728776;82;20217;-92
2022/09/08 11:58:10;;;;;;;;;;;;;;;28.29;47.82;97544.09;1732921;82;21104;-91
2022/09/08 12:01:05;;;;;;;;;;;;;;;28.49;46.44;97538.77;1736859;80;20324;-86
2022/09/08 12:03:49;;;;;;;;;;;;;;;28.49;46.04;97535.97;1719577;82;20189;-91
2022/09/08 12:06:37;;;;;;;;;;;;;;;28.47;47.89;97536.99;1730075;82;20232;-86
2022/09/08 12:09:24;;;;;;;;;;;;;;;28.52;46.91;97535.75;1733944;82;20170;-91
2022/09/08 12:12:16;;;;;;;;;;;;;;;28.60;48.24;97528.91;1726487;80;21140;-86
2022/09/08 12:15:05;;;;;;;;;;;;;;;28.65;48.54;97525.70;1722673;82;20210;-93
2022/09/08 12:17:49;;;;;;;;;;;;;;;28.64;49.71;97521.33;1727329;82;20194;-86
2022/09/08 12:20:36;;;;;;;;;;;;;;;28.68;48.87;97515.11;1714989;82;20211;-92
2022/09/08 12:23:14;;;;;;;;;;;;;;;28.66;47.37;97512.74;1724857;80;20278;-86
2022/09/08 12:25:53;;;;;;;;;;;;;;;28.57;47.16;97517.20;1737579;82;21642;-92
2022/09/08 12:28:52;;;;;;;;;;;;;;;28.44;49.22;97512.72;1725230;82;20203;-86
2022/09/08 12:31:57;;;;;;;;;;;;;;;28.47;49.35;97511.91;1719685;82;20890;-92
2022/09/08 12:34:38;;;;;;;;;;;;;;;28.53;48.22;97501.10;1645398;86;20759;-92
2022/09/08 12:37:08;;;;;;;;;;;;;;;28.56;46.11;97501.70;1601528;88;20217;-85
2022/09/08 12:40:07;;;;;;;;;;;;;;;28.61;46.07;97504.02;1624190;85;21069;-92
2022/09/08 12:42:37;;;;;;;;;;;;;;;28.58;45.69;97495.10;1670058;84;20255;-87
2022/09/08 12:45:15;;;;;;;;;;;;;;;28.61;46.11;97489.48;1666823;85;20264;-87
2022/09/08 12:48:06;;;;;;;;;;;;;;;28.52;45.24;97493.34;1679697;83;20140;-92
2022/09/08 12:50:50;;;;;;;;;;;;;;;28.47;45.32;97490.23;1670038;85;20543;-92
2022/09/08 12:53:23;;;;;;;;;;;;;;;28.35;45.28;97494.28;1685241;85;21084;-86
2022/09/08 12:55:58;;;;;;;;;;;;;;;28.26;45.85;97484.18;1670882;85;20514;-93
2022/09/08 12:58:25;;;;;;;;;;;;;;;28.21;46.15;97479.06;1661840;85;20487;-92
2022/09/08 13:00:57;;;;;;;;;;;;;;;28.19;46.22;97485.02;1692592;83;20227;-92
2022/09/08 13:03:37;;;;;;;;;;;;;;;28.10;47.50;97482.69;1677199;83;20171;-92
2022/09/08 13:06:07;;;;;;;;;;;;;;;27.89;48.12;97480.06;1667966;85;21829;-85
2022/09/08 13:08:39;;;;;;;;;;;;;;;27.84;47.83;97479.09;1673370;85;20161;-86
2022/09/08 13:11:24;;;;;;;;;;;;;;;27.69;48.97;97479.00;1670784;85;20179;-90
2022/09/08 13:13:50;;;;;;;;;;;;;;;27.61;49.58;97478.81;1663254;85;20259;-87
2022/09/08 13:16:35;;;;;;;;;;;;;;;27.62;49.20;97477.61;1667818;85;20144;-93
2022/09/08 13:19:17;;;;;;;;;;;;;;;27.48;49.58;97479.85;1676931;85;21259;-92
2022/09/08 13:21:52;;;;;;;;;;;;;;;27.43;50.35;97473.30;1667937;85;20300;-92
2022/09/08 13:24:33;;;;;;;;;;;;;;;27.51;51.30;97470.69;1662978;85;20171;-93